createdAt,value
2022-10-30T00:01:03.801Z,5.63
2022-10-30T00:03:30.193Z,7.93
2022-10-30T00:05:56.665Z,4.93
2022-10-30T00:08:25.656Z,5.05
2022-10-30T00:10:52.334Z,7.80
2022-10-30T00:13:19.510Z,3.97
2022-10-30T00:15:50.371Z,4.32
2022-10-30T00:18:17.233Z,4.05
2022-10-30T00:20:43.588Z,7.63
2022-10-30T00:23:10.039Z,4.25
2022-10-30T00:25:36.568Z,4.68
2022-10-30T00:28:06.145Z,3.97
2022-10-30T00:30:33.063Z,7.72
2022-10-30T00:32:59.847Z,3.50
2022-10-30T00:35:26.351Z,4.25
2022-10-30T00:37:52.746Z,5.78
2022-10-30T00:40:19.168Z,4.80
2022-10-30T00:42:45.655Z,4.07
2022-10-30T00:45:13.205Z,3.88
2022-10-30T00:47:42.326Z,4.43
2022-10-30T00:52:59.587Z,4.57
2022-10-30T00:55:31.767Z,4.40
2022-10-30T00:57:59.282Z,6.30
2022-10-30T01:00:26.896Z,8.25
2022-10-30T01:02:53.419Z,10.55
2022-10-30T01:05:21.667Z,3.17
2022-10-30T01:07:48.065Z,4.60
2022-10-30T01:10:14.829Z,3.97
2022-10-30T01:12:43.787Z,3.33
2022-10-30T01:15:10.899Z,3.67
2022-10-30T01:17:43.579Z,4.40
2022-10-30T01:20:09.950Z,6.22
2022-10-30T01:22:44.318Z,4.03
2022-10-30T01:25:26.016Z,3.85
2022-10-30T01:28:11.072Z,4.38
2022-10-30T01:30:46.751Z,3.38
2022-10-30T01:33:23.670Z,5.00
2022-10-30T01:35:57.290Z,3.67
2022-10-30T01:38:26.889Z,4.30
2022-10-30T01:40:53.681Z,5.70
2022-10-30T01:43:20.197Z,9.10
2022-10-30T01:46:06.875Z,3.97
2022-10-30T01:48:42.181Z,5.68
2022-10-30T01:51:08.519Z,5.38
2022-10-30T01:53:42.019Z,2.92
2022-10-30T01:56:14.648Z,4.28
2022-10-30T01:59:07.504Z,5.72
2022-10-30T02:01:35.713Z,5.38
2022-10-30T02:06:30.006Z,2.95
2022-10-30T02:08:56.850Z,3.33
2022-10-30T02:11:26.647Z,4.32
2022-10-30T02:13:54.552Z,4.30
2022-10-30T02:16:21.435Z,5.30
2022-10-30T02:18:47.828Z,4.15
2022-10-30T02:21:14.302Z,3.92
2022-10-30T02:23:42.726Z,4.18
2022-10-30T02:26:09.193Z,5.72
2022-10-30T02:28:35.521Z,4.63
2022-10-30T02:31:01.882Z,5.75
2022-10-30T02:33:28.229Z,4.88
2022-10-30T02:35:54.758Z,8.50
2022-10-30T02:38:21.143Z,3.90
2022-10-30T02:40:49.718Z,4.28
2022-10-30T02:43:16.117Z,3.95
2022-10-30T02:45:42.760Z,3.72
2022-10-30T02:50:36.947Z,4.18
2022-10-30T02:53:03.332Z,4.70
2022-10-30T02:55:29.648Z,3.65
2022-10-30T02:57:56.178Z,6.22
2022-10-30T03:00:22.524Z,4.43
2022-10-30T03:02:48.992Z,4.80
2022-10-30T03:05:15.459Z,6.18
2022-10-30T03:07:41.809Z,4.40
2022-10-30T03:10:08.372Z,5.32
2022-10-30T03:12:35.623Z,6.47
2022-10-30T03:15:02.027Z,8.30
2022-10-30T03:17:28.520Z,3.20
2022-10-30T03:19:54.935Z,6.95
2022-10-30T03:22:21.326Z,5.30
2022-10-30T03:24:48.655Z,5.32
2022-10-30T03:27:15.740Z,4.72
2022-10-30T03:29:42.138Z,4.05
2022-10-30T03:32:09.254Z,3.92
2022-10-30T03:34:43.005Z,9.02
2022-10-30T03:37:09.496Z,4.85
2022-10-30T03:39:35.841Z,7.18
2022-10-30T03:42:02.647Z,6.18
2022-10-30T03:44:29.043Z,4.03
2022-10-30T03:46:55.850Z,5.28
2022-10-30T03:49:26.874Z,3.50
2022-10-30T03:51:54.241Z,5.53
2022-10-30T03:54:23.001Z,3.08
2022-10-30T03:56:49.409Z,4.60
2022-10-30T03:59:16.628Z,3.40
2022-10-30T04:01:51.773Z,4.90
2022-10-30T04:04:18.299Z,4.07
2022-10-30T04:06:44.884Z,5.32
2022-10-30T04:09:11.265Z,5.93
2022-10-30T04:11:41.241Z,5.38
2022-10-30T04:14:08.117Z,5.15
2022-10-30T04:16:34.426Z,3.45
2022-10-30T04:19:02.108Z,5.07
2022-10-30T04:21:28.506Z,3.50
2022-10-30T04:23:56.909Z,5.53
2022-10-30T04:26:26.272Z,3.97
2022-10-30T04:28:52.772Z,5.15
2022-10-30T04:31:19.927Z,6.13
2022-10-30T04:33:46.389Z,5.07
2022-10-30T04:36:12.799Z,5.05
2022-10-30T04:38:39.172Z,4.88
2022-10-30T04:41:07.592Z,4.75
2022-10-30T04:43:51.606Z,5.00
2022-10-30T04:46:18.501Z,6.00
2022-10-30T04:48:45.449Z,7.18
2022-10-30T04:51:12.458Z,4.28
2022-10-30T04:53:38.898Z,4.70
2022-10-30T04:56:11.364Z,7.95
2022-10-30T04:58:38.032Z,3.42
2022-10-30T05:01:05.968Z,5.53
2022-10-30T05:03:33.456Z,6.70
2022-10-30T05:06:01.824Z,4.78
2022-10-30T05:08:28.760Z,4.88
2022-10-30T05:10:55.920Z,3.10
2022-10-30T05:13:22.640Z,6.72
2022-10-30T05:15:49.159Z,4.57
2022-10-30T05:18:15.728Z,8.10
2022-10-30T05:20:42.616Z,6.72
2022-10-30T05:23:10.003Z,7.05
2022-10-30T05:25:36.388Z,5.13
2022-10-30T05:28:05.762Z,5.28
2022-10-30T05:30:38.500Z,4.20
2022-10-30T05:33:12.365Z,4.50
2022-10-30T05:35:39.139Z,5.00
2022-10-30T05:38:06.766Z,4.40
2022-10-30T05:40:33.861Z,5.13
2022-10-30T05:43:00.931Z,4.72
2022-10-30T05:45:28.465Z,3.38
2022-10-30T05:48:01.226Z,7.10
2022-10-30T05:50:32.151Z,3.97
2022-10-30T05:53:17.494Z,4.88
2022-10-30T05:55:44.123Z,6.07
2022-10-30T05:58:16.039Z,3.97
2022-10-30T06:00:44.424Z,6.55
2022-10-30T06:03:14.511Z,6.18
2022-10-30T06:05:44.404Z,4.95
2022-10-30T06:08:10.777Z,4.78
2022-10-30T06:10:37.766Z,4.20
2022-10-30T06:13:10.190Z,5.45
2022-10-30T06:15:45.835Z,4.50
2022-10-30T06:18:12.399Z,6.00
2022-10-30T06:20:44.419Z,5.05
2022-10-30T06:23:29.391Z,5.00
2022-10-30T06:26:01.904Z,3.03
2022-10-30T06:28:34.997Z,5.75
2022-10-30T06:31:01.365Z,3.55
2022-10-30T06:33:29.693Z,6.18
2022-10-30T06:35:56.059Z,4.95
2022-10-30T06:38:22.855Z,3.10
2022-10-30T06:40:50.729Z,7.05
2022-10-30T06:43:46.602Z,4.53
2022-10-30T06:46:20.973Z,5.70
2022-10-30T06:48:49.248Z,3.90
2022-10-30T06:51:16.735Z,4.47
2022-10-30T06:53:44.307Z,3.92
2022-10-30T06:56:29.171Z,5.60
2022-10-30T06:59:28.321Z,4.97
2022-10-30T07:02:20.811Z,4.50
2022-10-30T07:04:56.753Z,3.60
2022-10-30T07:07:23.717Z,3.55
2022-10-30T07:09:50.342Z,4.05
2022-10-30T07:12:20.707Z,3.42
2022-10-30T07:15:08.719Z,5.55
2022-10-30T07:17:41.280Z,5.28
2022-10-30T07:20:19.783Z,5.15
2022-10-30T07:22:46.152Z,3.58
2022-10-30T07:25:12.982Z,4.10
2022-10-30T07:27:49.219Z,6.88
2022-10-30T07:30:34.098Z,4.72
2022-10-30T07:33:18.958Z,3.08
2022-10-30T07:35:54.306Z,6.20
2022-10-30T07:38:34.219Z,3.50
2022-10-30T07:41:13.729Z,4.40
2022-10-30T07:43:48.508Z,4.35
2022-10-30T07:46:46.996Z,4.80
2022-10-30T07:49:28.278Z,3.33
2022-10-30T07:51:58.798Z,5.22
2022-10-30T07:54:25.240Z,4.72
2022-10-30T07:56:52.174Z,3.88
2022-10-30T07:59:59.447Z,4.05
2022-10-30T08:02:41.774Z,5.15
2022-10-30T08:05:23.190Z,5.03
2022-10-30T08:08:10.465Z,4.13
2022-10-30T08:10:36.995Z,3.85
2022-10-30T08:13:03.455Z,3.08
2022-10-30T08:15:30.344Z,4.20
2022-10-30T08:17:57.014Z,2.95
2022-10-30T08:20:24.472Z,4.13
2022-10-30T08:22:52.136Z,2.65
2022-10-30T08:25:23.534Z,2.67
2022-10-30T08:27:51.186Z,3.92
2022-10-30T08:30:18.617Z,4.15
2022-10-30T08:32:45.662Z,4.22
2022-10-30T08:35:30.703Z,5.88
2022-10-30T08:37:59.951Z,3.45
2022-10-30T08:40:26.878Z,4.45
2022-10-30T08:43:05.605Z,2.88
2022-10-30T08:45:32.755Z,4.28
2022-10-30T08:48:10.797Z,3.35
2022-10-30T08:50:39.409Z,4.97
2022-10-30T08:53:09.996Z,2.38
2022-10-30T08:55:36.520Z,4.63
2022-10-30T08:58:06.363Z,7.63
2022-10-30T09:00:34.181Z,3.92
2022-10-30T09:03:12.689Z,1.77
2022-10-30T09:05:39.010Z,2.45
2022-10-30T09:08:17.487Z,2.50
2022-10-30T09:11:02.284Z,3.20
2022-10-30T09:13:28.698Z,2.92
2022-10-30T09:15:59.344Z,2.78
2022-10-30T09:18:25.882Z,7.65
2022-10-30T09:20:53.025Z,4.82
2022-10-30T09:23:19.424Z,2.53
2022-10-30T09:25:48.627Z,4.40
2022-10-30T09:28:23.735Z,2.45
2022-10-30T09:31:15.666Z,3.10
2022-10-30T09:33:42.138Z,2.08
2022-10-30T09:36:26.959Z,3.95
2022-10-30T09:38:55.434Z,2.97
2022-10-30T09:41:28.208Z,2.10
2022-10-30T09:43:55.252Z,2.95
2022-10-30T09:46:27.731Z,3.60
2022-10-30T09:49:03.085Z,3.65
2022-10-30T09:51:43.878Z,3.22
2022-10-30T09:54:17.707Z,2.33
2022-10-30T09:56:51.558Z,2.45
2022-10-30T09:59:26.271Z,2.88
2022-10-30T10:02:02.584Z,2.13
2022-10-30T10:04:42.164Z,5.07
2022-10-30T10:07:21.052Z,2.10
2022-10-30T10:09:53.923Z,3.65
2022-10-30T10:12:43.120Z,5.03
2022-10-30T10:15:28.324Z,2.45
2022-10-30T10:17:55.213Z,1.00
2022-10-30T10:20:33.321Z,3.33
2022-10-30T10:23:02.214Z,1.67
2022-10-30T10:25:30.891Z,8.55
2022-10-30T10:28:16.148Z,1.73
2022-10-30T10:30:58.361Z,2.72
2022-10-30T10:33:30.168Z,4.45
2022-10-30T10:36:03.606Z,2.35
2022-10-30T10:38:30.011Z,2.03
2022-10-30T10:41:00.899Z,0.75
2022-10-30T10:43:36.586Z,3.58
2022-10-30T10:46:21.711Z,2.17
2022-10-30T10:49:17.150Z,5.00
2022-10-30T10:51:45.563Z,2.30
2022-10-30T10:54:14.170Z,3.13
2022-10-30T10:56:43.455Z,2.42
2022-10-30T10:59:15.520Z,1.27
2022-10-30T11:02:11.402Z,2.33
2022-10-30T11:04:46.727Z,1.10
2022-10-30T11:07:21.580Z,1.70
2022-10-30T11:09:51.577Z,2.13
2022-10-30T11:12:20.512Z,1.40
2022-10-30T11:14:46.868Z,2.20
2022-10-30T11:17:19.338Z,2.22
2022-10-30T11:19:50.881Z,2.25
2022-10-30T11:22:23.047Z,2.47
2022-10-30T11:24:49.408Z,1.25
2022-10-30T11:27:26.481Z,3.80
2022-10-30T11:29:54.567Z,1.75
2022-10-30T11:32:26.415Z,4.38
2022-10-30T11:35:02.309Z,1.30
2022-10-30T11:37:30.150Z,1.83
2022-10-30T11:40:07.016Z,2.40
2022-10-30T11:42:33.969Z,2.17
2022-10-30T11:45:00.510Z,2.63
2022-10-30T11:50:18.317Z,2.10
2022-10-30T11:52:45.140Z,1.63
2022-10-30T11:55:18.036Z,1.77
2022-10-30T11:57:46.353Z,1.10
2022-10-30T12:00:17.981Z,2.58
2022-10-30T12:02:46.081Z,1.77
2022-10-30T12:05:31.400Z,2.97
2022-10-30T12:08:06.722Z,1.38
2022-10-30T12:10:34.220Z,1.83
2022-10-30T12:13:04.564Z,2.00
2022-10-30T12:15:33.499Z,1.95
2022-10-30T12:18:01.067Z,2.20
2022-10-30T12:20:27.853Z,2.83
2022-10-30T12:22:54.576Z,1.08
2022-10-30T12:25:28.308Z,1.58
2022-10-30T12:28:00.833Z,2.70
2022-10-30T12:30:28.704Z,3.28
2022-10-30T12:33:08.143Z,3.30
2022-10-30T12:35:37.252Z,2.90
2022-10-30T12:38:06.219Z,3.10
2022-10-30T12:40:37.416Z,2.33
2022-10-30T12:43:11.372Z,1.55
2022-10-30T12:45:40.625Z,0.95
2022-10-30T12:48:25.226Z,4.00
2022-10-30T12:51:10.455Z,2.33
2022-10-30T12:53:43.580Z,1.23
2022-10-30T12:56:21.714Z,1.20
2022-10-30T12:58:53.651Z,1.40
2022-10-30T13:01:26.842Z,1.85
2022-10-30T13:03:55.879Z,1.55
2022-10-30T13:06:31.630Z,1.42
2022-10-30T13:09:13.141Z,1.77
2022-10-30T13:11:43.162Z,1.48
2022-10-30T13:14:33.396Z,1.00
2022-10-30T13:16:59.744Z,1.65
2022-10-30T13:19:28.117Z,2.33
2022-10-30T13:22:06.137Z,1.60
2022-10-30T13:24:32.447Z,2.58
2022-10-30T13:27:05.147Z,1.58
2022-10-30T13:29:31.439Z,1.30
2022-10-30T13:32:16.548Z,4.78
2022-10-30T13:34:47.110Z,1.20
2022-10-30T13:39:53.150Z,3.28
2022-10-30T13:42:28.058Z,0.98
2022-10-30T13:45:13.197Z,3.53
2022-10-30T13:47:55.860Z,2.03
2022-10-30T13:50:28.589Z,4.07
2022-10-30T13:52:57.195Z,1.92
2022-10-30T13:55:26.055Z,1.02
2022-10-30T13:58:04.858Z,1.13
2022-10-30T14:00:31.356Z,3.50
2022-10-30T14:03:18.082Z,2.80
2022-10-30T14:05:51.718Z,2.78
2022-10-30T14:08:18.145Z,6.32
2022-10-30T14:10:57.684Z,2.60
2022-10-30T14:13:27.166Z,3.15
2022-10-30T14:16:04.978Z,1.20
2022-10-30T14:18:44.903Z,3.17
2022-10-30T14:21:30.814Z,1.90
2022-10-30T14:24:04.897Z,3.45
2022-10-30T14:26:31.314Z,2.45
2022-10-30T14:28:57.665Z,2.47
2022-10-30T14:31:35.264Z,1.30
2022-10-30T14:34:02.146Z,1.98
2022-10-30T14:36:37.881Z,2.08
2022-10-30T14:39:13.189Z,1.45
2022-10-30T14:41:46.045Z,1.20
2022-10-30T14:44:23.016Z,3.13
2022-10-30T14:46:49.318Z,2.33
2022-10-30T14:49:26.874Z,1.50
2022-10-30T14:52:11.036Z,1.48
2022-10-30T14:54:41.151Z,2.50
2022-10-30T14:57:20.571Z,3.13
2022-10-30T14:59:47.088Z,0.70
2022-10-30T15:02:13.503Z,1.02
2022-10-30T15:04:59.035Z,0.98
2022-10-30T15:07:43.922Z,3.83
2022-10-30T15:10:19.225Z,5.03
2022-10-30T15:13:04.988Z,1.83
2022-10-30T15:15:32.109Z,1.70
2022-10-30T15:18:01.297Z,6.30
2022-10-30T15:20:32.301Z,3.80
2022-10-30T15:23:02.868Z,1.23
2022-10-30T15:25:34.523Z,2.72
2022-10-30T15:28:01.291Z,2.90
2022-10-30T15:30:28.035Z,1.80
2022-10-30T15:32:56.668Z,2.22
2022-10-30T15:35:24.385Z,2.47
2022-10-30T15:38:01.347Z,5.07
2022-10-30T15:40:28.323Z,2.90
2022-10-30T15:42:55.172Z,2.15
2022-10-30T15:45:23.320Z,1.77
2022-10-30T15:47:59.103Z,3.15
2022-10-30T15:50:26.071Z,3.60
2022-10-30T15:52:54.059Z,2.63
2022-10-30T15:55:23.989Z,2.13
2022-10-30T15:58:07.136Z,2.85
2022-10-30T16:00:35.142Z,3.17
2022-10-30T16:03:10.689Z,3.78
2022-10-30T16:05:37.120Z,2.97
2022-10-30T16:08:04.717Z,2.50
2022-10-30T16:10:33.076Z,2.88
2022-10-30T16:12:59.712Z,2.35
2022-10-30T16:15:28.287Z,2.70
2022-10-30T16:18:15.694Z,1.35
2022-10-30T16:20:43.602Z,1.75
2022-10-30T16:23:10.155Z,4.05
2022-10-30T16:25:41.812Z,2.78
2022-10-30T16:28:29.333Z,2.08
2022-10-30T16:31:00.497Z,2.65
2022-10-30T16:33:28.144Z,2.38
2022-10-30T16:35:56.011Z,3.47
2022-10-30T16:38:23.658Z,1.67
2022-10-30T16:40:50.549Z,1.80
2022-10-30T16:43:30.723Z,1.88
2022-10-30T16:46:15.574Z,3.03
2022-10-30T16:48:43.713Z,2.95
2022-10-30T16:51:13.727Z,3.72
2022-10-30T16:53:40.152Z,3.22
2022-10-30T16:56:14.463Z,2.55
2022-10-30T16:58:40.830Z,2.63
2022-10-30T17:01:07.482Z,3.53
2022-10-30T17:03:36.268Z,4.05
2022-10-30T17:06:05.485Z,2.70
2022-10-30T17:08:51.530Z,3.42
2022-10-30T17:11:19.115Z,7.10
2022-10-30T17:13:48.759Z,2.53
2022-10-30T17:16:23.450Z,2.38
2022-10-30T17:18:51.515Z,4.95
2022-10-30T17:21:22.396Z,2.15
2022-10-30T17:23:53.023Z,4.18
2022-10-30T17:26:19.402Z,2.08
2022-10-30T17:28:46.574Z,3.72
2022-10-30T17:31:24.131Z,2.85
2022-10-30T17:34:02.709Z,2.10
2022-10-30T17:36:29.047Z,2.65
2022-10-30T17:38:55.427Z,2.88
2022-10-30T17:41:21.788Z,3.45
2022-10-30T17:43:51.087Z,2.30
2022-10-30T17:46:20.338Z,2.53
2022-10-30T17:48:47.360Z,3.13
2022-10-30T17:51:14.175Z,2.60
2022-10-30T17:53:40.663Z,1.63
2022-10-30T17:56:12.516Z,2.05
2022-10-30T17:58:38.885Z,4.55
2022-10-30T18:01:05.375Z,2.92
2022-10-30T18:03:31.773Z,4.57
2022-10-30T18:06:01.211Z,2.75
2022-10-30T18:08:27.949Z,3.55
2022-10-30T18:10:54.282Z,2.65
2022-10-30T18:13:20.703Z,5.30
2022-10-30T18:15:51.935Z,2.17
2022-10-30T18:18:18.467Z,4.38
2022-10-30T18:20:44.957Z,2.40
2022-10-30T18:23:38.737Z,3.05
2022-10-30T18:26:03.801Z,3.67
2022-10-30T18:28:30.168Z,3.70
2022-10-30T18:30:58.399Z,2.75
2022-10-30T18:33:24.908Z,4.57
2022-10-30T18:35:51.244Z,2.40
2022-10-30T18:38:17.588Z,4.47
2022-10-30T18:40:45.437Z,2.88
2022-10-30T18:43:12.383Z,2.00
2022-10-30T18:45:40.765Z,4.03
2022-10-30T18:48:08.163Z,2.17
2022-10-30T18:50:34.876Z,2.40
2022-10-30T18:53:01.357Z,4.30
2022-10-30T18:55:34.799Z,2.33
2022-10-30T18:58:01.909Z,3.65
2022-10-30T19:00:39.825Z,2.88
2022-10-30T19:03:16.628Z,4.00
2022-10-30T19:05:44.242Z,2.58
2022-10-30T19:08:10.772Z,3.08
2022-10-30T19:10:38.416Z,3.05
2022-10-30T19:13:19.529Z,4.78
2022-10-30T19:15:47.992Z,3.40
2022-10-30T19:18:14.807Z,2.72
2022-10-30T19:21:03.341Z,3.35
2022-10-30T19:23:28.053Z,4.65
2022-10-30T19:25:55.199Z,8.88
2022-10-30T19:28:21.708Z,3.63
2022-10-30T19:30:52.945Z,5.10
2022-10-30T19:33:20.529Z,2.90
2022-10-30T19:35:56.966Z,3.90
2022-10-30T19:38:23.558Z,3.17
2022-10-30T19:40:50.293Z,3.13
2022-10-30T19:43:16.653Z,4.75
2022-10-30T19:45:43.007Z,6.30
2022-10-30T19:48:13.072Z,3.38
2022-10-30T19:50:40.737Z,4.03
2022-10-30T19:53:07.568Z,5.38
2022-10-30T19:55:35.018Z,7.00
2022-10-30T19:58:02.158Z,4.55
2022-10-30T20:00:30.047Z,3.60
2022-10-30T20:02:57.044Z,7.20
2022-10-30T20:05:25.947Z,4.68
2022-10-30T20:08:01.593Z,3.60
2022-10-30T20:10:29.689Z,5.47
2022-10-30T20:12:57.698Z,4.80
2022-10-30T20:15:24.629Z,4.65
2022-10-30T20:17:51.276Z,4.53
2022-10-30T20:20:19.360Z,5.88
2022-10-30T20:22:45.839Z,5.43
2022-10-30T20:25:12.184Z,6.65
2022-10-30T20:27:39.545Z,4.65
2022-10-30T20:30:06.434Z,6.95
2022-10-30T20:32:32.926Z,3.65
2022-10-30T20:34:59.732Z,7.32
2022-10-30T20:37:26.072Z,2.63
2022-10-30T20:39:52.452Z,3.22
2022-10-30T20:42:19.346Z,3.92
2022-10-30T20:44:45.855Z,3.88
2022-10-30T20:47:12.299Z,5.15
2022-10-30T20:49:38.659Z,5.45
2022-10-30T20:52:05.089Z,8.18
2022-10-30T20:54:31.563Z,9.07
2022-10-30T20:56:57.882Z,3.78
2022-10-30T20:59:24.234Z,5.05
2022-10-30T21:01:50.714Z,3.17
2022-10-30T21:04:17.232Z,3.85
2022-10-30T21:06:43.538Z,6.70
2022-10-30T21:09:09.930Z,6.88
2022-10-30T21:11:36.311Z,7.85
2022-10-30T21:14:02.644Z,9.40
2022-10-30T21:16:28.998Z,6.22
2022-10-30T21:18:55.635Z,4.00
2022-10-30T21:21:25.567Z,6.65
2022-10-30T21:23:55.482Z,4.90
2022-10-30T21:26:21.805Z,5.90
2022-10-30T21:28:48.137Z,3.92
2022-10-30T21:31:14.702Z,5.65
2022-10-30T21:33:41.103Z,5.88
2022-10-30T21:36:12.349Z,4.30
2022-10-30T21:38:39.386Z,3.63
2022-10-30T21:41:05.756Z,5.35
2022-10-30T21:43:32.305Z,3.67
2022-10-30T21:45:58.663Z,7.93
2022-10-30T21:48:25.742Z,5.40
2022-10-30T21:50:52.042Z,4.30
2022-10-30T21:53:18.410Z,4.82
2022-10-30T21:55:44.801Z,4.78
2022-10-30T21:58:11.184Z,4.88
2022-10-30T22:00:37.506Z,6.00
2022-10-30T22:03:03.854Z,3.85
2022-10-30T22:05:31.840Z,6.22
2022-10-30T22:07:58.376Z,5.13
2022-10-30T22:10:24.916Z,6.55
2022-10-30T22:12:51.281Z,6.80
2022-10-30T22:15:17.683Z,4.78
2022-10-30T22:17:44.028Z,8.15
2022-10-30T22:20:10.757Z,4.00
2022-10-30T22:22:37.108Z,4.53
2022-10-30T22:25:03.535Z,5.68
2022-10-30T22:27:29.857Z,3.08
2022-10-30T22:29:56.225Z,5.28
2022-10-30T22:32:23.019Z,6.43
2022-10-30T22:34:49.476Z,7.03
2022-10-30T22:37:15.847Z,8.95
2022-10-30T22:39:42.230Z,3.40
2022-10-30T22:42:08.540Z,6.65
2022-10-30T22:44:35.032Z,4.13
2022-10-30T22:47:01.394Z,5.78
2022-10-30T22:49:27.734Z,5.20
2022-10-30T22:51:54.109Z,6.75
2022-10-30T22:54:20.440Z,5.63
2022-10-30T22:56:46.791Z,4.13
2022-10-30T22:59:13.529Z,4.13
2022-10-30T23:01:40.718Z,4.15
2022-10-30T23:04:07.947Z,5.25
2022-10-30T23:06:35.003Z,4.57
2022-10-30T23:09:02.368Z,5.55
2022-10-30T23:11:29.260Z,4.78
2022-10-30T23:13:56.321Z,3.53
2022-10-30T23:16:23.785Z,4.22
2022-10-30T23:18:50.666Z,5.55
2022-10-30T23:21:21.449Z,3.63
2022-10-30T23:23:48.137Z,4.97
2022-10-30T23:26:19.250Z,6.22
2022-10-30T23:28:46.332Z,6.82
2022-10-30T23:31:25.855Z,5.40
2022-10-30T23:33:53.718Z,5.40
2022-10-30T23:36:20.319Z,6.38
2022-10-30T23:39:00.148Z,4.70
2022-10-30T23:41:27.804Z,5.85
2022-10-30T23:43:54.947Z,5.38
2022-10-30T23:46:21.327Z,37.60
2022-10-30T23:48:47.648Z,27.05
2022-10-30T23:51:14.041Z,19.27
2022-10-30T23:53:40.459Z,27.02
2022-10-30T23:56:07.402Z,13.95
2022-10-30T23:58:33.927Z,8.85
